createdAt,value
2019-02-26T00:00:28.592Z,43.75
2019-02-26T00:03:04.651Z,48.40
2019-02-26T00:05:37.679Z,48.43
2019-02-26T00:08:10.871Z,43.60
2019-02-26T00:10:44.286Z,45.38
2019-02-26T00:13:17.594Z,49.93
2019-02-26T00:15:50.948Z,44.33
2019-02-26T00:18:25.119Z,42.73
2019-02-26T00:21:00.609Z,43.28
2019-02-26T00:23:33.057Z,40.23
2019-02-26T00:26:12.665Z,37.78
2019-02-26T00:28:43.666Z,39.25
2019-02-26T00:31:19.124Z,38.50
2019-02-26T00:33:52.297Z,40.03
2019-02-26T00:36:27.134Z,40.75
2019-02-26T00:39:03.447Z,41.13
2019-02-26T00:41:40.511Z,38.05
2019-02-26T00:44:14.731Z,35.70
2019-02-26T00:46:49.085Z,39.13
2019-02-26T00:49:23.633Z,40.00
2019-02-26T00:51:57.273Z,40.43
2019-02-26T00:54:31.990Z,38.23
2019-02-26T00:57:08.643Z,39.15
2019-02-26T00:59:43.587Z,37.40
2019-02-26T01:02:17.999Z,37.58
2019-02-26T01:04:51.242Z,36.58
2019-02-26T01:07:25.966Z,36.50
2019-02-26T01:09:59.268Z,38.65
2019-02-26T01:12:32.948Z,36.35
2019-02-26T01:15:17.110Z,36.33
2019-02-26T01:17:50.731Z,39.38
2019-02-26T01:20:25.662Z,39.45
2019-02-26T01:22:58.299Z,40.28
2019-02-26T01:25:32.075Z,33.83
2019-02-26T01:28:05.480Z,34.30
2019-02-26T01:30:39.686Z,36.95
2019-02-26T01:33:16.076Z,35.73
2019-02-26T01:35:50.302Z,35.40
2019-02-26T01:38:24.431Z,36.70
2019-02-26T01:40:59.390Z,35.55
2019-02-26T01:43:33.724Z,35.08
2019-02-26T01:46:07.801Z,34.78
2019-02-26T01:48:42.062Z,36.23
2019-02-26T01:51:17.000Z,37.88
2019-02-26T01:53:51.409Z,31.77
2019-02-26T01:56:24.402Z,33.03
2019-02-26T01:59:02.141Z,38.45
2019-02-26T02:01:34.174Z,37.85
2019-02-26T02:04:08.789Z,36.98
2019-02-26T02:06:42.433Z,35.85
2019-02-26T02:09:16.389Z,34.50
2019-02-26T02:11:51.292Z,36.83
2019-02-26T02:14:25.447Z,36.83
2019-02-26T02:17:01.668Z,35.25
2019-02-26T02:19:36.268Z,35.17
2019-02-26T02:22:10.059Z,34.30
2019-02-26T02:24:46.176Z,36.50
2019-02-26T02:27:20.318Z,34.40
2019-02-26T02:29:55.334Z,33.92
2019-02-26T02:32:29.532Z,34.03
2019-02-26T02:35:04.368Z,32.60
2019-02-26T02:37:37.548Z,36.25
2019-02-26T02:40:16.104Z,31.57
2019-02-26T02:42:49.717Z,32.23
2019-02-26T02:45:24.083Z,31.65
2019-02-26T02:48:00.571Z,33.25
2019-02-26T02:50:34.992Z,33.92
2019-02-26T02:53:08.470Z,33.02
2019-02-26T02:55:44.283Z,32.67
2019-02-26T02:58:18.201Z,35.15
2019-02-26T03:00:52.228Z,31.15
2019-02-26T03:03:25.134Z,32.50
2019-02-26T03:06:00.832Z,33.83
2019-02-26T03:08:33.843Z,33.42
2019-02-26T03:11:07.283Z,30.27
2019-02-26T03:13:43.083Z,37.45
2019-02-26T03:16:18.750Z,37.80
2019-02-26T03:18:51.207Z,32.20
2019-02-26T03:21:24.761Z,33.30
2019-02-26T03:24:00.884Z,32.78
2019-02-26T03:26:34.140Z,32.90
2019-02-26T03:29:07.816Z,35.52
2019-02-26T03:31:46.188Z,36.25
2019-02-26T03:34:21.788Z,34.80
2019-02-26T03:36:54.078Z,35.40
2019-02-26T03:39:27.525Z,37.67
2019-02-26T03:42:00.842Z,36.33
2019-02-26T03:44:34.587Z,38.40
2019-02-26T03:47:08.042Z,36.28
2019-02-26T03:49:42.245Z,37.63
2019-02-26T03:52:16.085Z,36.77
2019-02-26T03:54:50.727Z,35.08
2019-02-26T03:57:24.931Z,35.35
2019-02-26T03:59:59.528Z,33.23
2019-02-26T04:02:32.816Z,35.63
2019-02-26T04:05:08.839Z,36.88
2019-02-26T04:07:42.093Z,36.28
2019-02-26T04:10:15.576Z,35.88
2019-02-26T04:12:52.005Z,37.50
2019-02-26T04:15:25.013Z,38.08
2019-02-26T04:17:58.245Z,40.03
2019-02-26T04:20:31.594Z,36.58
2019-02-26T04:23:08.403Z,37.58
2019-02-26T04:26:01.653Z,37.58
2019-02-26T04:28:52.602Z,36.33
2019-02-26T04:31:44.586Z,36.13
2019-02-26T04:34:23.365Z,36.20
2019-02-26T04:37:25.368Z,33.55
2019-02-26T04:40:12.089Z,34.48
2019-02-26T04:42:59.354Z,33.85
2019-02-26T04:45:54.122Z,33.48
2019-02-26T04:48:34.277Z,32.17
2019-02-26T04:51:08.691Z,34.83
2019-02-26T04:53:42.497Z,34.33
2019-02-26T04:56:17.189Z,36.00
2019-02-26T04:58:51.517Z,34.63
2019-02-26T05:01:24.849Z,32.13
2019-02-26T05:03:58.732Z,35.95
2019-02-26T05:06:32.331Z,31.05
2019-02-26T05:09:08.611Z,32.17
2019-02-26T05:11:42.830Z,32.90
2019-02-26T05:14:22.907Z,34.97
2019-02-26T05:16:53.266Z,34.35
2019-02-26T05:19:26.963Z,32.05
2019-02-26T05:22:01.693Z,31.45
2019-02-26T05:24:38.569Z,31.70
2019-02-26T05:27:22.149Z,33.92
2019-02-26T05:29:55.840Z,32.08
2019-02-26T05:32:30.769Z,33.63
2019-02-26T05:35:04.310Z,33.98
2019-02-26T05:37:40.943Z,35.80
2019-02-26T05:40:18.313Z,38.92
2019-02-26T05:42:50.639Z,37.65
2019-02-26T05:45:26.579Z,36.40
2019-02-26T05:48:00.316Z,38.58
2019-02-26T05:50:35.607Z,46.08
2019-02-26T05:53:10.461Z,43.80
2019-02-26T05:55:45.093Z,41.75
2019-02-26T05:58:20.297Z,37.27
2019-02-26T06:00:53.439Z,36.53
2019-02-26T06:03:27.770Z,35.58
2019-02-26T06:06:01.701Z,41.50
2019-02-26T06:08:36.416Z,37.38
2019-02-26T06:11:10.710Z,39.27
2019-02-26T06:13:44.078Z,37.40
2019-02-26T06:16:19.746Z,36.93
2019-02-26T06:18:54.474Z,35.65
2019-02-26T06:21:28.283Z,34.80
2019-02-26T06:24:02.190Z,32.17
2019-02-26T06:26:38.132Z,35.48
2019-02-26T06:29:11.540Z,33.92
2019-02-26T06:31:47.050Z,36.00
2019-02-26T06:34:21.477Z,37.28
2019-02-26T06:36:56.113Z,38.45
2019-02-26T06:39:31.626Z,36.58
2019-02-26T06:42:05.203Z,40.63
2019-02-26T06:44:41.335Z,43.15
2019-02-26T06:47:14.099Z,43.78
2019-02-26T06:49:50.303Z,42.25
2019-02-26T06:52:23.772Z,35.63
2019-02-26T06:54:59.549Z,36.48
2019-02-26T06:57:32.652Z,36.35
2019-02-26T07:00:12.343Z,36.98
2019-02-26T07:02:46.680Z,36.65
2019-02-26T07:05:23.796Z,40.63
2019-02-26T07:07:56.994Z,38.33
2019-02-26T07:10:31.789Z,40.63
2019-02-26T07:13:08.849Z,39.77
2019-02-26T07:15:43.011Z,41.18
2019-02-26T07:18:19.581Z,40.98
2019-02-26T07:20:55.148Z,38.45
2019-02-26T07:23:29.915Z,37.90
2019-02-26T07:26:02.905Z,34.98
2019-02-26T07:28:36.639Z,36.80
2019-02-26T07:31:12.126Z,39.08
2019-02-26T07:33:46.248Z,34.00
2019-02-26T07:36:23.493Z,35.17
2019-02-26T07:38:56.486Z,38.45
2019-02-26T07:41:30.921Z,36.10
2019-02-26T07:44:09.016Z,33.15
2019-02-26T07:46:42.401Z,36.23
2019-02-26T07:49:16.375Z,36.17
2019-02-26T07:51:52.878Z,32.90
2019-02-26T07:54:28.840Z,36.50
2019-02-26T07:57:02.793Z,35.00
2019-02-26T07:59:36.936Z,35.25
2019-02-26T08:02:13.481Z,36.88
2019-02-26T08:04:48.277Z,35.50
2019-02-26T08:07:24.402Z,37.13
2019-02-26T08:09:58.609Z,36.83
2019-02-26T08:12:35.061Z,36.80
2019-02-26T08:15:08.680Z,39.67
2019-02-26T08:17:45.561Z,37.98
2019-02-26T08:20:19.121Z,35.17
2019-02-26T08:22:54.148Z,37.50
2019-02-26T08:25:28.122Z,35.95
2019-02-26T08:28:02.820Z,35.35
2019-02-26T08:30:40.151Z,32.67
2019-02-26T08:33:11.225Z,32.98
2019-02-26T08:35:46.238Z,31.68
2019-02-26T08:38:20.929Z,29.85
2019-02-26T08:40:54.624Z,31.97
2019-02-26T08:43:28.045Z,32.55
2019-02-26T08:46:01.604Z,32.78
2019-02-26T08:48:35.167Z,34.88
2019-02-26T08:51:13.518Z,32.58
2019-02-26T08:53:49.010Z,34.65
2019-02-26T08:56:23.645Z,35.48
2019-02-26T08:58:58.382Z,32.03
2019-02-26T09:01:31.690Z,35.00
2019-02-26T09:04:05.090Z,36.23
2019-02-26T09:06:39.121Z,33.90
2019-02-26T09:09:13.580Z,35.05
2019-02-26T09:11:47.302Z,32.98
2019-02-26T09:14:20.818Z,36.48
2019-02-26T09:16:57.055Z,35.17
2019-02-26T09:19:33.006Z,32.50
2019-02-26T09:22:09.625Z,33.05
2019-02-26T09:24:41.478Z,32.90
2019-02-26T09:27:15.025Z,31.87
2019-02-26T09:29:51.312Z,31.95
2019-02-26T09:32:25.726Z,32.43
2019-02-26T09:35:01.473Z,32.20
2019-02-26T09:37:36.046Z,32.75
2019-02-26T09:40:12.457Z,35.20
2019-02-26T09:42:47.189Z,34.20
2019-02-26T09:45:30.301Z,31.83
2019-02-26T09:48:05.344Z,25.17
2019-02-26T09:50:40.651Z,26.77
2019-02-26T09:53:14.240Z,29.95
2019-02-26T09:55:49.093Z,33.05
2019-02-26T09:58:25.206Z,33.25
2019-02-26T10:00:57.946Z,31.57
2019-02-26T10:03:33.234Z,31.70
2019-02-26T10:06:05.668Z,32.67
2019-02-26T10:08:39.743Z,30.68
2019-02-26T10:11:13.172Z,32.20
2019-02-26T10:13:47.196Z,30.43
2019-02-26T10:16:21.706Z,30.13
2019-02-26T10:18:56.794Z,32.73
2019-02-26T10:21:32.193Z,39.65
2019-02-26T10:24:04.781Z,37.65
2019-02-26T10:26:41.465Z,35.40
2019-02-26T10:29:14.862Z,35.25
2019-02-26T10:31:48.849Z,74.30
2019-02-26T10:34:25.886Z,40.63
2019-02-26T10:36:59.886Z,38.65
2019-02-26T10:39:33.976Z,32.30
2019-02-26T10:42:07.401Z,30.70
2019-02-26T10:44:42.694Z,34.75
2019-02-26T10:47:15.560Z,38.03
2019-02-26T10:49:49.785Z,34.63
2019-02-26T10:52:24.074Z,33.97
2019-02-26T10:54:58.037Z,35.13
2019-02-26T10:57:33.641Z,34.05
2019-02-26T11:00:10.853Z,32.13
2019-02-26T11:02:46.163Z,33.55
2019-02-26T11:05:26.192Z,37.50
2019-02-26T11:08:01.722Z,41.42
2019-02-26T11:10:41.419Z,37.45
2019-02-26T11:13:13.058Z,42.95
2019-02-26T11:15:50.887Z,37.13
2019-02-26T11:18:23.751Z,38.63
2019-02-26T11:20:59.215Z,36.83
2019-02-26T11:23:34.509Z,36.25
2019-02-26T11:26:10.733Z,34.13
2019-02-26T11:28:45.474Z,33.10
2019-02-26T11:31:24.379Z,31.95
2019-02-26T11:33:57.335Z,31.77
2019-02-26T11:36:32.953Z,29.80
2019-02-26T11:39:09.291Z,31.40
2019-02-26T11:41:43.854Z,28.80
2019-02-26T11:44:20.659Z,29.67
2019-02-26T11:46:56.495Z,28.90
2019-02-26T11:49:31.159Z,26.93
2019-02-26T11:52:06.154Z,27.42
2019-02-26T11:54:42.138Z,29.10
2019-02-26T11:57:17.671Z,31.80
2019-02-26T11:59:50.880Z,31.83
2019-02-26T12:02:31.360Z,27.90
2019-02-26T12:05:00.049Z,27.85
2019-02-26T12:07:35.404Z,28.20
2019-02-26T12:10:14.913Z,32.58
2019-02-26T12:12:51.445Z,33.00
2019-02-26T12:15:30.122Z,30.37
2019-02-26T12:18:02.413Z,28.77
2019-02-26T12:20:37.961Z,30.45
2019-02-26T12:23:13.332Z,29.37
2019-02-26T12:28:20.649Z,32.28
2019-02-26T12:31:09.897Z,34.65
2019-02-26T12:33:42.115Z,38.20
2019-02-26T12:36:18.935Z,36.58
2019-02-26T12:38:56.292Z,34.35
2019-02-26T12:41:32.416Z,31.73
2019-02-26T12:44:10.729Z,31.53
2019-02-26T12:46:42.082Z,33.00
2019-02-26T12:49:18.032Z,32.93
2019-02-26T12:51:53.959Z,32.80
2019-02-26T12:54:33.306Z,33.40
2019-02-26T12:57:05.017Z,32.73
2019-02-26T12:59:38.711Z,32.55
2019-02-26T13:02:14.028Z,31.93
2019-02-26T13:04:57.543Z,31.95
2019-02-26T13:07:32.459Z,32.93
2019-02-26T13:10:06.641Z,33.88
2019-02-26T13:12:40.252Z,33.13
2019-02-26T13:15:51.863Z,31.57
2019-02-26T13:17:57.595Z,34.60
2019-02-26T13:20:32.759Z,29.20
2019-02-26T13:25:45.011Z,29.35
2019-02-26T13:28:18.546Z,29.18
2019-02-26T13:30:57.541Z,31.02
2019-02-26T13:36:05.485Z,28.02
2019-02-26T13:38:44.996Z,29.27
2019-02-26T13:41:38.697Z,29.55
2019-02-26T13:46:32.850Z,28.40
2019-02-26T13:49:10.185Z,30.92
2019-02-26T13:51:45.226Z,30.05
2019-02-26T13:54:20.147Z,31.47
2019-02-26T13:56:54.382Z,33.63
2019-02-26T13:59:33.057Z,31.90
2019-02-26T14:02:06.410Z,32.45
2019-02-26T14:04:42.274Z,32.50
2019-02-26T14:07:19.755Z,33.58
2019-02-26T14:09:55.695Z,33.33
2019-02-26T14:12:30.746Z,32.42
2019-02-26T14:15:10.128Z,33.67
2019-02-26T14:17:47.893Z,36.23
2019-02-26T14:20:23.233Z,33.00
2019-02-26T14:23:00.311Z,33.20
2019-02-26T14:25:41.750Z,29.48
2019-02-26T14:28:18.217Z,33.45
2019-02-26T14:31:00.556Z,30.27
2019-02-26T14:33:35.566Z,30.32
2019-02-26T14:39:23.898Z,35.28
2019-02-26T14:42:01.862Z,36.93
2019-02-26T14:44:39.439Z,35.63
2019-02-26T14:47:15.168Z,38.20
2019-02-26T14:49:48.978Z,36.70
2019-02-26T14:52:24.973Z,36.40
2019-02-26T14:54:59.882Z,37.58
2019-02-26T14:57:35.811Z,33.00
2019-02-26T15:00:34.886Z,34.85
2019-02-26T15:03:08.451Z,31.12
2019-02-26T15:05:46.689Z,34.05
2019-02-26T15:08:28.928Z,29.57
2019-02-26T15:11:07.621Z,34.35
2019-02-26T15:13:44.704Z,27.98
2019-02-26T15:16:21.973Z,33.98
2019-02-26T15:18:59.281Z,32.03
2019-02-26T15:21:35.867Z,34.60
2019-02-26T15:24:16.401Z,29.12
2019-02-26T15:26:54.442Z,32.98
2019-02-26T15:29:43.655Z,28.42
2019-02-26T15:32:30.733Z,32.03
2019-02-26T15:35:06.452Z,28.77
2019-02-26T15:37:44.545Z,31.90
2019-02-26T15:40:26.238Z,29.00
2019-02-26T15:43:11.386Z,30.50
2019-02-26T15:45:52.045Z,29.42
2019-02-26T15:48:36.357Z,28.32
2019-02-26T15:51:20.077Z,28.00
2019-02-26T15:53:55.710Z,28.20
2019-02-26T15:56:40.077Z,28.07
2019-02-26T15:59:17.255Z,28.98
2019-02-26T16:02:03.392Z,25.80
2019-02-26T16:04:43.098Z,26.85
2019-02-26T16:07:18.756Z,26.27
2019-02-26T16:09:55.502Z,26.45
2019-02-26T16:12:33.502Z,26.95
2019-02-26T16:15:11.228Z,26.12
2019-02-26T16:20:40.212Z,23.92
2019-02-26T16:23:15.855Z,23.22
2019-02-26T16:25:52.717Z,25.60
2019-02-26T16:28:28.999Z,24.47
2019-02-26T16:31:04.511Z,23.45
2019-02-26T16:33:40.284Z,24.47
2019-02-26T16:36:20.356Z,23.47
2019-02-26T16:38:57.303Z,26.93
2019-02-26T16:41:30.960Z,22.90
2019-02-26T16:44:05.581Z,21.87
2019-02-26T16:46:42.057Z,20.70
2019-02-26T16:49:15.579Z,22.48
2019-02-26T16:51:52.461Z,22.60
2019-02-26T16:54:45.251Z,19.87
2019-02-26T16:57:21.260Z,21.23
2019-02-26T16:59:54.758Z,19.57
2019-02-26T17:02:30.822Z,20.45
2019-02-26T17:05:07.588Z,17.35
2019-02-26T17:07:44.771Z,20.40
2019-02-26T17:10:29.447Z,17.42
2019-02-26T17:13:03.022Z,18.45
2019-02-26T17:15:37.731Z,16.57
2019-02-26T17:18:16.427Z,18.73
2019-02-26T17:20:49.575Z,19.32
2019-02-26T17:23:25.568Z,18.80
2019-02-26T17:26:00.622Z,18.37
2019-02-26T17:28:33.843Z,18.30
2019-02-26T17:31:22.478Z,27.20
2019-02-26T17:33:57.606Z,19.75
2019-02-26T17:36:32.608Z,20.43
2019-02-26T17:39:06.735Z,18.35
2019-02-26T17:41:44.675Z,18.65
2019-02-26T17:44:15.721Z,18.80
2019-02-26T17:46:49.060Z,17.12
2019-02-26T17:49:22.559Z,18.15
2019-02-26T17:51:56.169Z,17.67
2019-02-26T17:54:30.974Z,16.15
2019-02-26T17:57:05.088Z,17.82
2019-02-26T17:59:40.187Z,15.63
2019-02-26T18:02:16.587Z,18.65
2019-02-26T18:04:50.510Z,15.43
2019-02-26T18:07:24.072Z,18.25
2019-02-26T18:09:57.501Z,16.65
2019-02-26T18:12:31.240Z,16.80
2019-02-26T18:15:06.250Z,17.02
2019-02-26T18:17:41.186Z,17.45
2019-02-26T18:20:21.584Z,15.78
2019-02-26T18:22:54.792Z,17.10
2019-02-26T18:25:31.370Z,17.15
2019-02-26T18:28:08.704Z,15.93
2019-02-26T18:30:42.126Z,16.67
2019-02-26T18:33:16.221Z,14.10
2019-02-26T18:35:49.636Z,14.38
2019-02-26T18:38:23.322Z,15.65
2019-02-26T18:41:00.532Z,14.25
2019-02-26T18:46:05.519Z,11.78
2019-02-26T18:48:40.136Z,13.08
2019-02-26T18:51:13.789Z,13.20
2019-02-26T18:53:47.751Z,12.95
2019-02-26T18:56:21.141Z,13.10
2019-02-26T18:58:54.512Z,12.73
2019-02-26T19:01:28.452Z,12.60
2019-02-26T19:04:02.138Z,11.73
2019-02-26T19:06:35.394Z,12.45
2019-02-26T19:09:11.467Z,11.90
2019-02-26T19:11:44.940Z,13.20
2019-02-26T19:14:19.660Z,12.00
2019-02-26T19:16:54.854Z,11.45
2019-02-26T19:19:27.130Z,12.40
2019-02-26T19:22:01.325Z,13.10
2019-02-26T19:24:35.846Z,12.77
2019-02-26T19:27:09.685Z,13.43
2019-02-26T19:29:43.068Z,12.93
2019-02-26T19:32:16.490Z,12.53
2019-02-26T19:34:49.899Z,12.60
2019-02-26T19:37:23.168Z,13.35
2019-02-26T19:39:56.289Z,13.10
2019-02-26T19:42:29.682Z,12.43
2019-02-26T19:45:03.129Z,12.35
2019-02-26T19:47:37.711Z,13.75
2019-02-26T19:50:14.767Z,13.00
2019-02-26T19:52:57.047Z,12.95
2019-02-26T19:55:29.982Z,12.82
2019-02-26T19:58:05.788Z,11.75
2019-02-26T20:00:38.969Z,13.78
2019-02-26T20:03:12.529Z,11.90
2019-02-26T20:05:47.305Z,11.55
2019-02-26T20:08:20.885Z,10.90
2019-02-26T20:10:58.824Z,11.38
2019-02-26T20:13:34.104Z,11.00
2019-02-26T20:16:07.163Z,11.43
2019-02-26T20:18:40.420Z,11.30
2019-02-26T20:21:13.919Z,10.70
2019-02-26T20:23:49.766Z,11.75
2019-02-26T20:26:24.139Z,11.45
2019-02-26T20:28:57.869Z,12.03
2019-02-26T20:31:32.272Z,11.73
2019-02-26T20:34:06.810Z,12.43
2019-02-26T20:36:40.557Z,12.53
2019-02-26T20:39:13.862Z,12.60
2019-02-26T20:41:47.231Z,12.55
2019-02-26T20:44:20.654Z,12.65
2019-02-26T20:46:57.950Z,11.68
2019-02-26T20:49:31.049Z,14.25
2019-02-26T20:52:04.557Z,14.25
2019-02-26T20:54:37.919Z,12.47
2019-02-26T20:57:12.501Z,13.35
2019-02-26T20:59:51.518Z,13.50
2019-02-26T21:02:22.895Z,13.40
2019-02-26T21:04:58.216Z,13.83
2019-02-26T21:07:32.131Z,12.23
2019-02-26T21:10:05.864Z,13.08
2019-02-26T21:12:39.458Z,13.50
2019-02-26T21:15:18.073Z,14.28
2019-02-26T21:17:52.408Z,14.20
2019-02-26T21:20:25.707Z,13.20
2019-02-26T21:22:58.961Z,14.15
2019-02-26T21:25:32.864Z,13.95
2019-02-26T21:28:06.009Z,14.07
2019-02-26T21:30:40.486Z,13.62
2019-02-26T21:33:13.703Z,13.78
2019-02-26T21:35:46.934Z,14.78
2019-02-26T21:38:20.273Z,13.58
2019-02-26T21:40:53.626Z,13.50
2019-02-26T21:43:26.725Z,13.35
2019-02-26T21:46:00.138Z,14.45
2019-02-26T21:48:36.366Z,13.83
2019-02-26T21:51:12.012Z,14.20
2019-02-26T21:53:46.689Z,13.13
2019-02-26T21:56:20.027Z,13.68
2019-02-26T21:58:54.262Z,14.80
2019-02-26T22:01:27.661Z,14.93
2019-02-26T22:04:00.800Z,14.33
2019-02-26T22:06:34.160Z,13.88
2019-02-26T22:09:07.654Z,13.28
2019-02-26T22:11:42.021Z,12.90
2019-02-26T22:14:16.385Z,12.40
2019-02-26T22:16:51.507Z,13.50
2019-02-26T22:19:26.776Z,12.78
2019-02-26T22:22:00.223Z,13.05
2019-02-26T22:24:37.767Z,13.38
2019-02-26T22:27:11.085Z,13.65
2019-02-26T22:29:47.908Z,12.35
2019-02-26T22:32:19.125Z,13.78
2019-02-26T22:34:54.209Z,12.88
2019-02-26T22:37:30.588Z,13.90
2019-02-26T22:40:04.227Z,13.22
2019-02-26T22:42:38.868Z,14.20
2019-02-26T22:48:34.477Z,14.45
2019-02-26T22:51:07.825Z,13.48
2019-02-26T22:53:41.243Z,12.70
2019-02-26T22:56:16.192Z,12.43
2019-02-26T22:58:49.527Z,13.13
2019-02-26T23:01:30.630Z,14.93
2019-02-26T23:04:00.541Z,12.90
2019-02-26T23:06:34.015Z,12.78
2019-02-26T23:09:08.063Z,14.25
2019-02-26T23:11:42.568Z,16.85
2019-02-26T23:14:18.797Z,13.83
2019-02-26T23:16:53.362Z,13.05
2019-02-26T23:19:26.982Z,12.47
2019-02-26T23:22:00.486Z,13.95
2019-02-26T23:24:34.042Z,12.98
2019-02-26T23:27:08.519Z,12.85
2019-02-26T23:29:42.159Z,15.23
2019-02-26T23:35:17.694Z,8.93
2019-02-26T23:37:51.112Z,8.63
2019-02-26T23:40:28.058Z,9.18
2019-02-26T23:43:02.428Z,7.37
2019-02-26T23:45:36.780Z,7.97
2019-02-26T23:48:11.199Z,7.20
2019-02-26T23:50:47.381Z,7.30
2019-02-26T23:55:53.271Z,6.70
2019-02-26T23:58:30.634Z,6.15
